AirNav   TITAN Aviation Fuels
 
 1086 users online  

32CL Bob's Flying Service Inc Airport
Knights Landing, California, USA

GOING TO KNIGHTS LANDING?


FAA INFORMATION EFFECTIVE 22 APRIL 2021

Location

FAA Identifier: 32CL
Lat/Long: 38-49-59.6400N 121-43-03.8720W
38-49.994000N 121-43.064533W
38.8332333,-121.7177422
(estimated)
Elevation: 40 ft. / 12 m (estimated)
Variation: 16E (1985)
From city: 2 miles N of KNIGHTS LANDING, CA
Time zone: UTC -7 (UTC -8 during Standard Time)
Zip code: 95645

Airport Operations

Airport use: Private use. Permission required prior to landing
Activation date: 01/1972
Control tower: no
ARTCC: OAKLAND CENTER
FSS: RANCHO MURIETA FLIGHT SERVICE STATION
Attendance: MON-SAT 0800-1700
Wind indicator: yes
Segmented circle: no

Airport Communications

WX ASOS at SMF (10 nm SE): PHONE 916-649-3996
WX AWOS-3P at DWA (17 nm SW): 125.775 (530-750-2759)
WX ASOS at MYV (17 nm NE): 118.475 (530-742-0695)
WX AWOS-3 at LHM (18 nm E): 124.25 (916-645-0698)
WX AWOS-3 at MCC (18 nm SE): 125.975 (916-641-1272)
WX AWOS-3 at EDU (18 nm S): 119.025 (530-754-6839)

Nearby radio navigation aids

VOR radial/distance  VOR name  Freq  Var
MYVr187/17.3MARYSVILLE VOR/DME110.8016E
MCCr287/17.7MC CLELLAN VOR/DME109.2017E
ILAr117/20.3WILLIAMS VORTAC114.4018E
SACr325/24.6SACRAMENTO VORTAC115.2017E

Airport Services

Fuel available: 100 JET-A
Airframe service: NONE
Powerplant service: NONE

Runway Information

Runway N/S

Dimensions: 2500 x 50 ft. / 762 x 15 m
Surface: gravel/treated
RUNWAY N  RUNWAY S
Traffic pattern: leftleft
Obstructions: 100 ft. tower, lighted3 ft. fence

Airport Ownership and Management from official FAA records

Ownership: Privately-owned
Owner: BOB STICKEL
STAR ROUTE, BOX 446
KNIGHTS LANDING, CA 95645
Phone 916-735-6201
Manager: BOB STICKEL
STAR ROUTE, BOX 446
KNIGHTS LANDING, CA 95645
Phone 916-735-6201

Airport Operational Statistics

Aircraft based on the field: 5
Single engine airplanes: 4
Multi engine airplanes: 1
    

Additional Remarks

FOR CD CTC NORCAL APCH AT 916-361-6874.

Instrument Procedures

There are no published instrument procedures at 32CL.

Some nearby airports with instrument procedures:

KSMF - Sacramento International Airport (10 nm SE)
O41 - Watts-Woodland Airport (12 nm SW)
KDWA - Yolo County Airport (17 nm SW)
KMYV - Yuba County Airport (17 nm NE)
KLHM - Lincoln Regional Airport/Karl Harder Field (18 nm E)
KMCC - Mc Clellan Airfield (18 nm SE)
KEDU - University Airport (18 nm S)
 
Loc | Ops | Rwys | IFR | FBO | Links
Com | Nav | Svcs | Stats | Notes

Sonoma Jet Center
 
Area around 32CL (Bob's Flying Service Inc Airport)
 
Road maps at: MapQuest Bing Google
 
Aerial photo
No photo
 
Sectional chart

 
Airport distance calculator
Flying to Bob's Flying Service Inc Airport? Find the distance to fly.

From to 32CL

Sunrise and sunset
Times for 16-May-2021
 Local
(UTC-7)
 Zulu
(UTC)
Morning civil twilight05:2412:24
Sunrise05:5412:54
Sunset20:1203:12
Evening civil twilight20:4203:42

Current date and time
Zulu (UTC)  17-May-2021 00:00:30
Local (UTC-7)  16-May-2021 17:00:30
 
METAR
KSMF 
10nm SE 
162353Z 18013KT 10SM FEW200 25/11 A2982 RMK AO2 SLP099 T02500106 10256 20172 58014
KDWA 
17nm SW 
162335Z AUTO 15009KT 10SM CLR 27/10 A2983 RMK AO2
KMYV 
17nm NE 
162353Z AUTO 17012KT 10SM CLR 27/09 A2981 RMK AO2 SLP099 T02670094 10272 20183 58017
KLHM 
18nm E 
162335Z AUTO 16009KT 10SM CLR 26/09 A2983 RMK AO1
KMCC 
18nm SE 
162335Z AUTO 16009G18KT 10SM CLR 25/10 A2984 RMK AO2
KEDU 
18nm S 
162340Z AUTO 20011G16KT 10SM CLR 25/10 A2983 RMK AO1
TAF
KSMF 
10nm SE 
161728Z 1618/1718 17015G21KT P6SM BKN150 FM161900 18013G19KT P6SM SCT150 FM170100 18016G22KT P6SM SCT150 FM170900 15014KT P6SM SKC FM171200 15011KT P6SM SCT015 TEMPO 1713/1716 BKN015
KMCC 
18nm SE 
161728Z 1618/1718 17010KT P6SM BKN150 FM170100 19014KT P6SM SCT150 FM170900 16012KT P6SM SCT150 FM171200 15010KT P6SM SCT015 TEMPO 1713/1716 BKN015
NOTAMs
Click for the latest NOTAMs
NOTAMs are issued by the DoD/FAA and will open in a separate window not controlled by AirNav.

 

 
 

Would you like to see your business listed on this page?

 If your business provides an interesting product or service to pilots, flight crews, aircraft, or users of the Bob's Flying Service Inc Airport, you should consider listing it here.  To start the listing process, click on the button below
 
Add a business
 

Other Pages about Bob's Flying Service Inc Airport

Update a link
 
Copyright © AirNav, LLC. All rights reserved. Privacy Policy  Contact